sensor_id;sensor_type;location;lat;lon;timestamp;temperature;humidity
51725;DHT22;37801;53.224;6.552;2023-03-01T04:05:15;1.00;1.00
51725;DHT22;37801;53.224;6.552;2023-03-01T04:07:42;1.00;1.00
51725;DHT22;37801;53.224;6.552;2023-03-01T04:10:11;1.00;1.00
51725;DHT22;37801;53.224;6.552;2023-03-01T04:12:37;0.90;1.00
51725;DHT22;37801;53.224;6.552;2023-03-01T04:15:04;1.00;1.00
51725;DHT22;37801;53.224;6.552;2023-03-01T04:17:42;1.00;1.00
51725;DHT22;37801;53.224;6.552;2023-03-01T04:20:10;1.00;1.00
51725;DHT22;37801;53.224;6.552;2023-03-01T04:22:37;1.00;4.10
51725;DHT22;37801;53.224;6.552;2023-03-01T04:25:03;1.10;1.50
51725;DHT22;37801;53.224;6.552;2023-03-01T04:27:32;1.10;13.90
51725;DHT22;37801;53.224;6.552;2023-03-01T04:29:58;1.10;22.50
51725;DHT22;37801;53.224;6.552;2023-03-01T04:32:24;1.10;10.60
51725;DHT22;37801;53.224;6.552;2023-03-01T04:34:49;1.10;17.60
51725;DHT22;37801;53.224;6.552;2023-03-01T04:37:15;1.20;19.80
51725;DHT22;37801;53.224;6.552;2023-03-01T04:39:41;1.20;1.20
51725;DHT22;37801;53.224;6.552;2023-03-01T04:42:14;1.10;1.00
51725;DHT22;37801;53.224;6.552;2023-03-01T04:44:40;1.30;1.00
51725;DHT22;37801;53.224;6.552;2023-03-01T04:47:06;1.20;4.20
51725;DHT22;37801;53.224;6.552;2023-03-01T04:49:32;1.10;1.00
51725;DHT22;37801;53.224;6.552;2023-03-01T04:51:57;1.20;1.00
51725;DHT22;37801;53.224;6.552;2023-03-01T04:54:28;1.20;1.00
51725;DHT22;37801;53.224;6.552;2023-03-01T04:56:54;1.20;1.00
51725;DHT22;37801;53.224;6.552;2023-03-01T04:59:20;1.10;1.00
51725;DHT22;37801;53.224;6.552;2023-03-01T05:01:51;1.20;1.00
51725;DHT22;37801;53.224;6.552;2023-03-01T05:04:17;1.20;1.00
51725;DHT22;37801;53.224;6.552;2023-03-01T05:06:43;1.10;1.00
51725;DHT22;37801;53.224;6.552;2023-03-01T05:09:09;1.10;1.00
51725;DHT22;37801;53.224;6.552;2023-03-01T05:11:37;1.10;1.00
51725;DHT22;37801;53.224;6.552;2023-03-01T05:14:04;1.00;1.00
51725;DHT22;37801;53.224;6.552;2023-03-01T05:16:30;1.00;1.00
51725;DHT22;37801;53.224;6.552;2023-03-01T05:18:57;1.00;1.00
51725;DHT22;37801;53.224;6.552;2023-03-01T05:21:23;0.90;1.00
51725;DHT22;37801;53.224;6.552;2023-03-01T05:23:49;0.90;1.00
51725;DHT22;37801;53.224;6.552;2023-03-01T05:26:17;0.90;1.00
51725;DHT22;37801;53.224;6.552;2023-03-01T05:28:44;0.90;1.00
51725;DHT22;37801;53.224;6.552;2023-03-01T05:31:09;0.80;1.00
51725;DHT22;37801;53.224;6.552;2023-03-01T05:33:39;0.80;1.00
51725;DHT22;37801;53.224;6.552;2023-03-01T05:36:06;0.80;1.00
51725;DHT22;37801;53.224;6.552;2023-03-01T05:38:32;0.80;1.00
51725;DHT22;37801;53.224;6.552;2023-03-01T05:40:58;0.70;1.00
51725;DHT22;37801;53.224;6.552;2023-03-01T05:43:24;0.70;1.00
51725;DHT22;37801;53.224;6.552;2023-03-01T05:45:50;0.70;1.00
51725;DHT22;37801;53.224;6.552;2023-03-01T05:48:16;0.70;1.00
51725;DHT22;37801;53.224;6.552;2023-03-01T05:50:45;0.70;1.00
51725;DHT22;37801;53.224;6.552;2023-03-01T05:53:18;0.70;1.00
51725;DHT22;37801;53.224;6.552;2023-03-01T05:55:44;0.60;1.00
51725;DHT22;37801;53.224;6.552;2023-03-01T05:58:15;0.70;1.00
51725;DHT22;37801;53.224;6.552;2023-03-01T06:00:44;0.60;1.00
51725;DHT22;37801;53.224;6.552;2023-03-01T06:03:12;0.60;1.00
51725;DHT22;37801;53.224;6.552;2023-03-01T06:05:38;0.60;1.00
51725;DHT22;37801;53.224;6.552;2023-03-01T06:08:05;0.60;1.00
51725;DHT22;37801;53.224;6.552;2023-03-01T06:10:31;0.60;1.00
51725;DHT22;37801;53.224;6.552;2023-03-01T06:12:57;0.60;1.00
51725;DHT22;37801;53.224;6.552;2023-03-01T06:15:24;0.60;1.00
51725;DHT22;37801;53.224;6.552;2023-03-01T06:17:50;0.60;1.00
51725;DHT22;37801;53.224;6.552;2023-03-01T06:20:18;0.60;1.00
51725;DHT22;37801;53.224;6.552;2023-03-01T06:22:45;0.60;1.00
51725;DHT22;37801;53.224;6.552;2023-03-01T06:25:13;0.60;1.00
51725;DHT22;37801;53.224;6.552;2023-03-01T06:27:40;0.50;1.00
51725;DHT22;37801;53.224;6.552;2023-03-01T06:30:06;0.60;1.00
51725;DHT22;37801;53.224;6.552;2023-03-01T06:32:33;0.60;1.00
51725;DHT22;37801;53.224;6.552;2023-03-01T06:34:59;0.50;1.00
51725;DHT22;37801;53.224;6.552;2023-03-01T06:37:25;0.60;1.00
51725;DHT22;37801;53.224;6.552;2023-03-01T06:39:51;0.60;1.00
51725;DHT22;37801;53.224;6.552;2023-03-01T06:42:17;0.50;1.00
51725;DHT22;37801;53.224;6.552;2023-03-01T06:44:44;0.60;1.00
51725;DHT22;37801;53.224;6.552;2023-03-01T06:47:09;0.60;1.00
51725;DHT22;37801;53.224;6.552;2023-03-01T06:49:35;0.60;1.00
51725;DHT22;37801;53.224;6.552;2023-03-01T06:52:01;0.60;1.00
51725;DHT22;37801;53.224;6.552;2023-03-01T06:54:27;0.60;1.00
51725;DHT22;37801;53.224;6.552;2023-03-01T06:56:52;0.60;1.00
51725;DHT22;37801;53.224;6.552;2023-03-01T06:59:18;0.60;1.00
51725;DHT22;37801;53.224;6.552;2023-03-01T07:01:44;0.60;1.00
51725;DHT22;37801;53.224;6.552;2023-03-01T07:04:11;0.60;1.00
51725;DHT22;37801;53.224;6.552;2023-03-01T07:06:37;0.70;1.00
51725;DHT22;37801;53.224;6.552;2023-03-01T07:09:03;0.60;1.00
51725;DHT22;37801;53.224;6.552;2023-03-01T07:11:29;0.70;1.00
51725;DHT22;37801;53.224;6.552;2023-03-01T07:13:55;0.70;1.00
51725;DHT22;37801;53.224;6.552;2023-03-01T07:16:21;0.80;1.00
51725;DHT22;37801;53.224;6.552;2023-03-01T07:18:47;0.80;1.00
51725;DHT22;37801;53.224;6.552;2023-03-01T07:21:14;0.70;1.00
51725;DHT22;37801;53.224;6.552;2023-03-01T07:23:40;0.80;1.00
51725;DHT22;37801;53.224;6.552;2023-03-01T07:26:06;0.80;1.00
51725;DHT22;37801;53.224;6.552;2023-03-01T07:28:32;0.80;1.00
51725;DHT22;37801;53.224;6.552;2023-03-01T07:31:04;0.90;1.00
51725;DHT22;37801;53.224;6.552;2023-03-01T07:33:30;0.90;1.00
51725;DHT22;37801;53.224;6.552;2023-03-01T07:36:00;0.90;1.00
51725;DHT22;37801;53.224;6.552;2023-03-01T07:38:27;1.00;1.00
51725;DHT22;37801;53.224;6.552;2023-03-01T07:40:53;1.00;1.00
51725;DHT22;37801;53.224;6.552;2023-03-01T07:43:19;1.00;1.00
51725;DHT22;37801;53.224;6.552;2023-03-01T07:45:46;1.10;1.00
51725;DHT22;37801;53.224;6.552;2023-03-01T07:48:12;1.10;2.80
51725;DHT22;37801;53.224;6.552;2023-03-01T07:50:37;1.10;1.00
51725;DHT22;37801;53.224;6.552;2023-03-01T07:53:03;1.20;1.00
51725;DHT22;37801;53.224;6.552;2023-03-01T07:55:30;1.10;1.00
51725;DHT22;37801;53.224;6.552;2023-03-01T07:57:55;1.20;1.00
51725;DHT22;37801;53.224;6.552;2023-03-01T08:00:21;1.20;1.00
51725;DHT22;37801;53.224;6.552;2023-03-01T08:02:47;1.20;1.00
51725;DHT22;37801;53.224;6.552;2023-03-01T08:05:13;1.20;1.00
51725;DHT22;37801;53.224;6.552;2023-03-01T08:07:39;1.30;1.00
51725;DHT22;37801;53.224;6.552;2023-03-01T08:10:05;1.30;1.00
51725;DHT22;37801;53.224;6.552;2023-03-01T08:12:31;1.40;1.00
51725;DHT22;37801;53.224;6.552;2023-03-01T08:14:56;1.40;1.00
51725;DHT22;37801;53.224;6.552;2023-03-01T08:17:22;1.40;1.00
51725;DHT22;37801;53.224;6.552;2023-03-01T08:19:48;1.40;1.00
51725;DHT22;37801;53.224;6.552;2023-03-01T08:22:14;1.50;1.00
51725;DHT22;37801;53.224;6.552;2023-03-01T08:24:40;1.50;1.00
51725;DHT22;37801;53.224;6.552;2023-03-01T08:27:05;1.50;1.00
51725;DHT22;37801;53.224;6.552;2023-03-01T08:29:32;1.50;1.60
51725;DHT22;37801;53.224;6.552;2023-03-01T08:31:59;1.60;3.50
51725;DHT22;37801;53.224;6.552;2023-03-01T08:34:25;1.60;9.50
51725;DHT22;37801;53.224;6.552;2023-03-01T08:36:51;1.60;10.00
51725;DHT22;37801;53.224;6.552;2023-03-01T08:39:19;1.60;11.10
51725;DHT22;37801;53.224;6.552;2023-03-01T08:41:46;1.60;12.40
51725;DHT22;37801;53.224;6.552;2023-03-01T08:44:13;1.70;14.70
51725;DHT22;37801;53.224;6.552;2023-03-01T08:46:40;1.70;13.40
51725;DHT22;37801;53.224;6.552;2023-03-01T08:49:11;1.70;12.30
51725;DHT22;37801;53.224;6.552;2023-03-01T08:51:37;1.70;23.70
51725;DHT22;37801;53.224;6.552;2023-03-01T08:54:09;1.80;26.50
51725;DHT22;37801;53.224;6.552;2023-03-01T08:56:36;1.80;29.00
51725;DHT22;37801;53.224;6.552;2023-03-01T08:59:02;1.80;24.40
51725;DHT22;37801;53.224;6.552;2023-03-01T09:01:28;1.90;24.60
51725;DHT22;37801;53.224;6.552;2023-03-01T09:03:54;1.90;28.80
51725;DHT22;37801;53.224;6.552;2023-03-01T09:06:20;1.90;37.10
51725;DHT22;37801;53.224;6.552;2023-03-01T09:08:49;1.90;39.40
51725;DHT22;37801;53.224;6.552;2023-03-01T09:11:20;2.00;42.00
51725;DHT22;37801;53.224;6.552;2023-03-01T09:13:47;2.00;40.60
51725;DHT22;37801;53.224;6.552;2023-03-01T09:16:15;2.10;45.90
51725;DHT22;37801;53.224;6.552;2023-03-01T09:18:43;2.10;50.20
51725;DHT22;37801;53.224;6.552;2023-03-01T09:21:16;2.10;63.60
51725;DHT22;37801;53.224;6.552;2023-03-01T09:23:44;2.20;66.50
51725;DHT22;37801;53.224;6.552;2023-03-01T09:26:21;2.20;74.30
51725;DHT22;37801;53.224;6.552;2023-03-01T09:28:50;2.20;76.90
51725;DHT22;37801;53.224;6.552;2023-03-01T09:31:17;2.30;69.60
51725;DHT22;37801;53.224;6.552;2023-03-01T09:33:46;2.30;66.20
51725;DHT22;37801;53.224;6.552;2023-03-01T09:36:19;2.40;68.60
51725;DHT22;37801;53.224;6.552;2023-03-01T09:38:46;2.50;69.30
51725;DHT22;37801;53.224;6.552;2023-03-01T09:46:51;2.50;63.40
51725;DHT22;37801;53.224;6.552;2023-03-01T09:49:20;2.70;64.70
51725;DHT22;37801;53.224;6.552;2023-03-01T09:54:39;2.80;69.60
51725;DHT22;37801;53.224;6.552;2023-03-01T09:57:21;3.00;75.30
51725;DHT22;37801;53.224;6.552;2023-03-01T10:10:38;3.50;80.00
51725;DHT22;37801;53.224;6.552;2023-03-01T10:13:21;3.50;94.20
51725;DHT22;37801;53.224;6.552;2023-03-01T10:15:58;3.50;99.90
51725;DHT22;37801;53.224;6.552;2023-03-01T10:18:27;3.60;97.40
51725;DHT22;37801;53.224;6.552;2023-03-01T10:21:03;3.50;99.90
51725;DHT22;37801;53.224;6.552;2023-03-01T10:23:34;3.60;99.90
51725;DHT22;37801;53.224;6.552;2023-03-01T10:26:27;3.50;99.90
51725;DHT22;37801;53.224;6.552;2023-03-01T10:31:36;3.70;53.70
51725;DHT22;37801;53.224;6.552;2023-03-01T10:34:15;3.80;54.90
51725;DHT22;37801;53.224;6.552;2023-03-01T10:36:42;3.80;39.40
51725;DHT22;37801;53.224;6.552;2023-03-01T10:39:17;3.90;7.00
51725;DHT22;37801;53.224;6.552;2023-03-01T10:42:00;4.00;1.00
51725;DHT22;37801;53.224;6.552;2023-03-01T10:44:42;4.10;1.00
51725;DHT22;37801;53.224;6.552;2023-03-01T10:50:04;4.30;1.00
51725;DHT22;37801;53.224;6.552;2023-03-01T10:52:36;4.30;1.00
51725;DHT22;37801;53.224;6.552;2023-03-01T11:00:55;4.50;1.00
51725;DHT22;37801;53.224;6.552;2023-03-01T11:03:35;4.60;1.00
51725;DHT22;37801;53.224;6.552;2023-03-01T11:08:46;4.60;1.00
51725;DHT22;37801;53.224;6.552;2023-03-01T11:11:14;4.70;1.00
51725;DHT22;37801;53.224;6.552;2023-03-01T11:13:55;4.70;1.00
51725;DHT22;37801;53.224;6.552;2023-03-01T11:21:41;4.90;1.00
51725;DHT22;37801;53.224;6.552;2023-03-01T11:24:13;5.00;1.00
51725;DHT22;37801;53.224;6.552;2023-03-01T11:26:43;5.00;1.00
51725;DHT22;37801;53.224;6.552;2023-03-01T11:29:30;5.00;1.00
51725;DHT22;37801;53.224;6.552;2023-03-01T11:32:00;5.00;1.00
51725;DHT22;37801;53.224;6.552;2023-03-01T11:35:03;5.10;1.00
51725;DHT22;37801;53.224;6.552;2023-03-01T11:40:26;5.10;1.00
51725;DHT22;37801;53.224;6.552;2023-03-01T11:43:01;5.20;1.00
51725;DHT22;37801;53.224;6.552;2023-03-01T11:45:47;5.20;1.00
51725;DHT22;37801;53.224;6.552;2023-03-01T11:48:24;5.30;1.00
51725;DHT22;37801;53.224;6.552;2023-03-01T11:50:54;5.30;1.00
51725;DHT22;37801;53.224;6.552;2023-03-01T11:56:18;5.30;1.00
51725;DHT22;37801;53.224;6.552;2023-03-01T12:01:32;5.40;1.00
51725;DHT22;37801;53.224;6.552;2023-03-01T12:10:13;5.40;1.00
51725;DHT22;37801;53.224;6.552;2023-03-01T12:29:29;5.50;1.00
51725;DHT22;37801;53.224;6.552;2023-03-01T12:32:27;5.50;1.00
51725;DHT22;37801;53.224;6.552;2023-03-01T12:46:19;5.70;1.00
51725;DHT22;37801;53.224;6.552;2023-03-01T12:49:16;5.70;1.00
51725;DHT22;37801;53.224;6.552;2023-03-01T12:51:56;5.80;1.00
51725;DHT22;37801;53.224;6.552;2023-03-01T12:54:32;5.80;1.00
51725;DHT22;37801;53.224;6.552;2023-03-01T12:57:15;5.80;1.00
51725;DHT22;37801;53.224;6.552;2023-03-01T13:02:47;5.90;1.00
51725;DHT22;37801;53.224;6.552;2023-03-01T13:10:49;5.90;1.00
51725;DHT22;37801;53.224;6.552;2023-03-01T13:13:27;5.90;1.00
51725;DHT22;37801;53.224;6.552;2023-03-01T13:15:53;5.90;1.00
51725;DHT22;37801;53.224;6.552;2023-03-01T13:20:47;5.90;1.00
51725;DHT22;37801;53.224;6.552;2023-03-01T13:28:49;5.90;1.00
51725;DHT22;37801;53.224;6.552;2023-03-01T13:33:45;5.90;1.00
51725;DHT22;37801;53.224;6.552;2023-03-01T13:49:48;6.10;1.00
51725;DHT22;37801;53.224;6.552;2023-03-01T13:52:40;6.10;1.00
51725;DHT22;37801;53.224;6.552;2023-03-01T13:57:39;6.10;1.00
51725;DHT22;37801;53.224;6.552;2023-03-01T14:03:08;6.10;1.00
51725;DHT22;37801;53.224;6.552;2023-03-01T14:05:34;6.00;1.00
51725;DHT22;37801;53.224;6.552;2023-03-01T14:08:02;6.00;1.00
51725;DHT22;37801;53.224;6.552;2023-03-01T14:10:37;6.00;1.00
51725;DHT22;37801;53.224;6.552;2023-03-01T14:16:20;6.00;1.00
51725;DHT22;37801;53.224;6.552;2023-03-01T14:19:17;6.10;1.00
51725;DHT22;37801;53.224;6.552;2023-03-01T14:21:46;6.10;1.00
51725;DHT22;37801;53.224;6.552;2023-03-01T14:24:21;6.10;1.00
51725;DHT22;37801;53.224;6.552;2023-03-01T14:26:48;6.10;1.00
51725;DHT22;37801;53.224;6.552;2023-03-01T14:29:35;6.10;1.00
51725;DHT22;37801;53.224;6.552;2023-03-01T14:32:19;6.10;1.00
51725;DHT22;37801;53.224;6.552;2023-03-01T14:34:47;6.20;1.00
51725;DHT22;37801;53.224;6.552;2023-03-01T14:37:22;6.20;1.00
51725;DHT22;37801;53.224;6.552;2023-03-01T14:39:49;6.20;1.00
51725;DHT22;37801;53.224;6.552;2023-03-01T14:42:16;6.20;1.00
51725;DHT22;37801;53.224;6.552;2023-03-01T14:44:46;6.20;1.00
51725;DHT22;37801;53.224;6.552;2023-03-01T14:47:29;6.20;1.00
51725;DHT22;37801;53.224;6.552;2023-03-01T14:50:07;6.20;1.00
51725;DHT22;37801;53.224;6.552;2023-03-01T14:52:38;6.30;1.00
51725;DHT22;37801;53.224;6.552;2023-03-01T14:55:19;6.30;1.00
51725;DHT22;37801;53.224;6.552;2023-03-01T14:57:49;6.30;1.00
51725;DHT22;37801;53.224;6.552;2023-03-01T15:00:24;6.30;1.00
51725;DHT22;37801;53.224;6.552;2023-03-01T15:02:52;6.30;1.00
51725;DHT22;37801;53.224;6.552;2023-03-01T15:05:31;6.30;1.00
51725;DHT22;37801;53.224;6.552;2023-03-01T15:07:59;6.30;1.00
51725;DHT22;37801;53.224;6.552;2023-03-01T15:10:35;6.20;1.00
51725;DHT22;37801;53.224;6.552;2023-03-01T15:13:24;6.20;1.00
51725;DHT22;37801;53.224;6.552;2023-03-01T15:15:51;6.20;1.00
51725;DHT22;37801;53.224;6.552;2023-03-01T15:18:22;6.30;1.00
51725;DHT22;37801;53.224;6.552;2023-03-01T15:20:51;6.30;1.00
51725;DHT22;37801;53.224;6.552;2023-03-01T15:23:21;6.30;1.00
51725;DHT22;37801;53.224;6.552;2023-03-01T15:25:48;6.30;1.00
51725;DHT22;37801;53.224;6.552;2023-03-01T15:28:23;6.20;1.00
51725;DHT22;37801;53.224;6.552;2023-03-01T15:36:00;6.10;1.00
51725;DHT22;37801;53.224;6.552;2023-03-01T15:41:37;6.10;1.00
51725;DHT22;37801;53.224;6.552;2023-03-01T15:44:28;6.10;1.00
51725;DHT22;37801;53.224;6.552;2023-03-01T15:46:54;6.10;1.00
51725;DHT22;37801;53.224;6.552;2023-03-01T15:49:41;6.10;1.00
51725;DHT22;37801;53.224;6.552;2023-03-01T15:52:19;6.10;1.00
51725;DHT22;37801;53.224;6.552;2023-03-01T15:54:46;6.10;1.00
51725;DHT22;37801;53.224;6.552;2023-03-01T15:57:13;6.10;1.00
51725;DHT22;37801;53.224;6.552;2023-03-01T15:59:41;6.10;1.00
51725;DHT22;37801;53.224;6.552;2023-03-01T16:02:13;6.10;1.00
51725;DHT22;37801;53.224;6.552;2023-03-01T16:04:39;6.10;1.00
51725;DHT22;37801;53.224;6.552;2023-03-01T16:07:05;6.10;1.00
51725;DHT22;37801;53.224;6.552;2023-03-01T16:09:30;6.10;1.00
51725;DHT22;37801;53.224;6.552;2023-03-01T16:11:56;6.00;1.00
51725;DHT22;37801;53.224;6.552;2023-03-01T16:14:22;6.00;1.00
51725;DHT22;37801;53.224;6.552;2023-03-01T16:16:48;6.10;1.00
51725;DHT22;37801;53.224;6.552;2023-03-01T16:19:14;6.10;1.00
51725;DHT22;37801;53.224;6.552;2023-03-01T16:21:42;6.10;1.00
51725;DHT22;37801;53.224;6.552;2023-03-01T16:24:09;6.10;1.00
51725;DHT22;37801;53.224;6.552;2023-03-01T16:26:36;6.00;1.00
51725;DHT22;37801;53.224;6.552;2023-03-01T16:29:02;6.00;1.00
51725;DHT22;37801;53.224;6.552;2023-03-01T16:31:28;6.00;1.00
51725;DHT22;37801;53.224;6.552;2023-03-01T16:33:55;6.00;1.00
51725;DHT22;37801;53.224;6.552;2023-03-01T16:36:22;6.00;1.70
51725;DHT22;37801;53.224;6.552;2023-03-01T16:38:54;6.00;15.90
51725;DHT22;37801;53.224;6.552;2023-03-01T16:41:22;6.00;31.60
51725;DHT22;37801;53.224;6.552;2023-03-01T16:43:49;5.90;28.50
51725;DHT22;37801;53.224;6.552;2023-03-01T16:46:35;5.90;39.80
51725;DHT22;37801;53.224;6.552;2023-03-01T16:49:01;5.90;57.10
51725;DHT22;37801;53.224;6.552;2023-03-01T16:51:26;5.80;61.50
51725;DHT22;37801;53.224;6.552;2023-03-01T16:53:52;5.80;67.00
51725;DHT22;37801;53.224;6.552;2023-03-01T16:56:18;5.70;83.70
51725;DHT22;37801;53.224;6.552;2023-03-01T16:58:45;5.70;85.10
51725;DHT22;37801;53.224;6.552;2023-03-01T17:01:16;5.70;89.90
51725;DHT22;37801;53.224;6.552;2023-03-01T17:03:45;5.70;95.70
51725;DHT22;37801;53.224;6.552;2023-03-01T17:06:17;5.60;99.80
51725;DHT22;37801;53.224;6.552;2023-03-01T17:08:43;5.60;99.90
51725;DHT22;37801;53.224;6.552;2023-03-01T17:11:12;5.70;99.90
51725;DHT22;37801;53.224;6.552;2023-03-01T17:13:38;5.60;99.90
51725;DHT22;37801;53.224;6.552;2023-03-01T17:16:07;5.60;99.90
51725;DHT22;37801;53.224;6.552;2023-03-01T17:18:33;5.50;99.90
51725;DHT22;37801;53.224;6.552;2023-03-01T17:20:59;5.50;99.90
51725;DHT22;37801;53.224;6.552;2023-03-01T17:23:26;5.50;99.90
51725;DHT22;37801;53.224;6.552;2023-03-01T17:25:53;5.40;99.90
51725;DHT22;37801;53.224;6.552;2023-03-01T17:28:22;5.40;99.90
51725;DHT22;37801;53.224;6.552;2023-03-01T17:30:48;5.40;99.90
51725;DHT22;37801;53.224;6.552;2023-03-01T17:33:14;5.40;99.90
51725;DHT22;37801;53.224;6.552;2023-03-01T17:35:40;5.40;99.90
51725;DHT22;37801;53.224;6.552;2023-03-01T17:38:06;5.40;99.90
51725;DHT22;37801;53.224;6.552;2023-03-01T17:40:32;5.30;99.90
51725;DHT22;37801;53.224;6.552;2023-03-01T17:43:00;5.20;99.90
51725;DHT22;37801;53.224;6.552;2023-03-01T17:45:27;5.20;99.90
51725;DHT22;37801;53.224;6.552;2023-03-01T17:47:53;5.10;99.90
51725;DHT22;37801;53.224;6.552;2023-03-01T17:50:18;5.10;99.90
51725;DHT22;37801;53.224;6.552;2023-03-01T17:52:44;5.00;99.90
51725;DHT22;37801;53.224;6.552;2023-03-01T17:55:10;5.00;99.90
51725;DHT22;37801;53.224;6.552;2023-03-01T17:57:40;5.00;99.90
51725;DHT22;37801;53.224;6.552;2023-03-01T18:00:10;4.90;99.90
51725;DHT22;37801;53.224;6.552;2023-03-01T18:02:36;4.90;99.90
51725;DHT22;37801;53.224;6.552;2023-03-01T18:05:02;4.90;99.90
51725;DHT22;37801;53.224;6.552;2023-03-01T18:07:28;4.80;99.90
51725;DHT22;37801;53.224;6.552;2023-03-01T18:09:55;4.70;99.90
51725;DHT22;37801;53.224;6.552;2023-03-01T18:12:20;4.70;99.90
51725;DHT22;37801;53.224;6.552;2023-03-01T18:14:48;4.60;99.90
51725;DHT22;37801;53.224;6.552;2023-03-01T18:17:18;4.60;99.90
51725;DHT22;37801;53.224;6.552;2023-03-01T18:19:44;4.50;99.90
51725;DHT22;37801;53.224;6.552;2023-03-01T18:22:10;4.40;99.90
51725;DHT22;37801;53.224;6.552;2023-03-01T18:24:37;4.40;99.90
51725;DHT22;37801;53.224;6.552;2023-03-01T18:27:02;4.40;99.90
51725;DHT22;37801;53.224;6.552;2023-03-01T18:29:28;4.40;99.90
51725;DHT22;37801;53.224;6.552;2023-03-01T18:31:54;4.30;99.90
51725;DHT22;37801;53.224;6.552;2023-03-01T18:34:20;4.30;99.90
51725;DHT22;37801;53.224;6.552;2023-03-01T18:36:46;4.30;99.90
51725;DHT22;37801;53.224;6.552;2023-03-01T18:39:11;4.20;99.90
51725;DHT22;37801;53.224;6.552;2023-03-01T18:41:39;4.20;99.90
51725;DHT22;37801;53.224;6.552;2023-03-01T18:44:05;4.20;99.90
51725;DHT22;37801;53.224;6.552;2023-03-01T18:46:31;4.20;99.90
51725;DHT22;37801;53.224;6.552;2023-03-01T18:48:57;4.20;99.90
51725;DHT22;37801;53.224;6.552;2023-03-01T18:51:27;4.20;99.90
51725;DHT22;37801;53.224;6.552;2023-03-01T18:53:54;4.20;99.90
51725;DHT22;37801;53.224;6.552;2023-03-01T18:56:20;4.20;99.90
51725;DHT22;37801;53.224;6.552;2023-03-01T18:58:46;4.20;99.90
51725;DHT22;37801;53.224;6.552;2023-03-01T19:01:17;4.20;99.90
51725;DHT22;37801;53.224;6.552;2023-03-01T19:03:43;4.30;99.90
51725;DHT22;37801;53.224;6.552;2023-03-01T19:06:09;4.30;99.90
51725;DHT22;37801;53.224;6.552;2023-03-01T19:08:35;4.30;99.90
51725;DHT22;37801;53.224;6.552;2023-03-01T19:11:03;4.30;99.90
51725;DHT22;37801;53.224;6.552;2023-03-01T19:13:30;4.30;99.90
51725;DHT22;37801;53.224;6.552;2023-03-01T19:16:20;4.20;99.90
51725;DHT22;37801;53.224;6.552;2023-03-01T19:18:47;4.20;99.90
51725;DHT22;37801;53.224;6.552;2023-03-01T19:21:21;4.20;99.90
51725;DHT22;37801;53.224;6.552;2023-03-01T19:23:47;4.20;99.90
51725;DHT22;37801;53.224;6.552;2023-03-01T19:26:15;4.20;99.90
51725;DHT22;37801;53.224;6.552;2023-03-01T19:28:41;4.20;99.90
51725;DHT22;37801;53.224;6.552;2023-03-01T19:31:09;4.30;99.90
51725;DHT22;37801;53.224;6.552;2023-03-01T19:33:36;4.30;99.90
51725;DHT22;37801;53.224;6.552;2023-03-01T19:36:03;4.30;99.90
51725;DHT22;37801;53.224;6.552;2023-03-01T19:38:29;4.30;99.90
51725;DHT22;37801;53.224;6.552;2023-03-01T19:40:55;4.30;99.90
51725;DHT22;37801;53.224;6.552;2023-03-01T19:43:21;4.40;99.90
51725;DHT22;37801;53.224;6.552;2023-03-01T19:45:54;4.40;99.90
51725;DHT22;37801;53.224;6.552;2023-03-01T19:48:20;4.40;99.90
51725;DHT22;37801;53.224;6.552;2023-03-01T19:50:47;4.40;99.90
51725;DHT22;37801;53.224;6.552;2023-03-01T19:53:14;4.50;99.90
51725;DHT22;37801;53.224;6.552;2023-03-01T19:55:40;4.50;99.90
51725;DHT22;37801;53.224;6.552;2023-03-01T19:58:06;4.50;99.90
51725;DHT22;37801;53.224;6.552;2023-03-01T20:00:33;4.50;99.90
51725;DHT22;37801;53.224;6.552;2023-03-01T20:02:59;4.50;99.90
51725;DHT22;37801;53.224;6.552;2023-03-01T20:05:25;4.50;99.90
51725;DHT22;37801;53.224;6.552;2023-03-01T20:07:54;4.50;99.90
51725;DHT22;37801;53.224;6.552;2023-03-01T20:10:23;4.50;99.90
51725;DHT22;37801;53.224;6.552;2023-03-01T20:12:52;4.50;99.90
51725;DHT22;37801;53.224;6.552;2023-03-01T20:15:18;4.40;99.90
51725;DHT22;37801;53.224;6.552;2023-03-01T20:17:43;4.50;99.90
51725;DHT22;37801;53.224;6.552;2023-03-01T20:20:10;4.50;99.90
51725;DHT22;37801;53.224;6.552;2023-03-01T20:22:35;4.50;99.90
51725;DHT22;37801;53.224;6.552;2023-03-01T20:25:01;4.40;99.90
51725;DHT22;37801;53.224;6.552;2023-03-01T20:27:27;4.50;99.90
51725;DHT22;37801;53.224;6.552;2023-03-01T20:29:53;4.50;99.90
51725;DHT22;37801;53.224;6.552;2023-03-01T20:32:19;4.50;99.90
51725;DHT22;37801;53.224;6.552;2023-03-01T20:34:45;4.50;99.90
51725;DHT22;37801;53.224;6.552;2023-03-01T20:37:10;4.50;99.90
51725;DHT22;37801;53.224;6.552;2023-03-01T20:39:36;4.60;99.90
51725;DHT22;37801;53.224;6.552;2023-03-01T20:42:02;4.60;99.90
51725;DHT22;37801;53.224;6.552;2023-03-01T20:44:28;4.60;99.90
51725;DHT22;37801;53.224;6.552;2023-03-01T20:46:53;4.70;99.90
51725;DHT22;37801;53.224;6.552;2023-03-01T20:49:19;4.70;99.90
51725;DHT22;37801;53.224;6.552;2023-03-01T20:51:46;4.70;99.90
51725;DHT22;37801;53.224;6.552;2023-03-01T20:54:12;4.60;99.90
51725;DHT22;37801;53.224;6.552;2023-03-01T20:56:38;4.70;99.90
51725;DHT22;37801;53.224;6.552;2023-03-01T20:59:05;4.60;99.90
51725;DHT22;37801;53.224;6.552;2023-03-01T21:01:34;4.60;99.90
51725;DHT22;37801;53.224;6.552;2023-03-01T21:04:00;4.60;99.90
51725;DHT22;37801;53.224;6.552;2023-03-01T21:06:26;4.60;99.90
51725;DHT22;37801;53.224;6.552;2023-03-01T21:08:53;4.60;99.90
51725;DHT22;37801;53.224;6.552;2023-03-01T21:11:20;4.60;99.90
51725;DHT22;37801;53.224;6.552;2023-03-01T21:13:50;4.60;99.90
51725;DHT22;37801;53.224;6.552;2023-03-01T21:16:17;4.60;99.90
51725;DHT22;37801;53.224;6.552;2023-03-01T21:18:44;4.40;99.90
51725;DHT22;37801;53.224;6.552;2023-03-01T21:21:12;4.50;99.90
51725;DHT22;37801;53.224;6.552;2023-03-01T21:23:39;4.50;99.90
51725;DHT22;37801;53.224;6.552;2023-03-01T21:26:22;4.50;99.90
51725;DHT22;37801;53.224;6.552;2023-03-01T21:28:52;4.50;99.90
51725;DHT22;37801;53.224;6.552;2023-03-01T21:31:21;4.50;99.90
51725;DHT22;37801;53.224;6.552;2023-03-01T21:33:49;4.50;99.90
51725;DHT22;37801;53.224;6.552;2023-03-01T21:36:16;4.50;99.90
51725;DHT22;37801;53.224;6.552;2023-03-01T21:38:43;4.50;99.90
51725;DHT22;37801;53.224;6.552;2023-03-01T21:41:15;4.50;99.90
51725;DHT22;37801;53.224;6.552;2023-03-01T21:43:43;4.50;99.90
51725;DHT22;37801;53.224;6.552;2023-03-01T21:46:12;4.50;99.90
51725;DHT22;37801;53.224;6.552;2023-03-01T21:48:39;4.60;99.90
51725;DHT22;37801;53.224;6.552;2023-03-01T21:51:05;4.60;99.90
51725;DHT22;37801;53.224;6.552;2023-03-01T21:53:32;4.50;99.90
51725;DHT22;37801;53.224;6.552;2023-03-01T21:56:00;4.50;99.90
51725;DHT22;37801;53.224;6.552;2023-03-01T21:58:26;4.50;99.90
51725;DHT22;37801;53.224;6.552;2023-03-01T22:00:54;4.60;99.90
51725;DHT22;37801;53.224;6.552;2023-03-01T22:03:21;4.60;99.90
51725;DHT22;37801;53.224;6.552;2023-03-01T22:05:54;4.60;99.90
51725;DHT22;37801;53.224;6.552;2023-03-01T22:08:20;4.60;99.90
51725;DHT22;37801;53.224;6.552;2023-03-01T22:10:45;4.60;99.90
51725;DHT22;37801;53.224;6.552;2023-03-01T22:13:11;4.60;99.90
51725;DHT22;37801;53.224;6.552;2023-03-01T22:15:40;4.60;99.90
51725;DHT22;37801;53.224;6.552;2023-03-01T22:18:09;4.60;99.90
51725;DHT22;37801;53.224;6.552;2023-03-01T22:20:35;4.50;99.90